Disclaimer

Please do not use the information listed here in-flight or in-navigation, as they are not provided to us by the airports but are provided by volunteers, so they might be outdated.

Search


Regions


Airport information page

Radio informations:
TIJUANA TWR - 118.1 MHz
TIJUANA INFO - 132.1 MHz
TIJUANA CLNC DEL - 122.35 MHz
Automatic Terminal Information Service (ATIS) - 127.9 MHz
TIJUANA APP - 119.5 MHz

Airport informations:
Latitude: 32° 32' 27.83" N
Longitude: 116° 58' 12.57" W
Elevation: 489 feet - 149 meters
Operating hours: Remarks
Operating agency: Civil government, landing fees and diplomatic clearance may be required
Timezone: UTC-8(-7DT) - First Sunday in April to the last Saturday in October
Fuel: Jet A1, without icing nhibitor.

100/130 MIL Spec, low lead, aviation gasoline (BLUE)

Runway information:
09/27 - 9711 x 144 feet< - >2960 x 44 meters

Recent METARs:
MMTJ 162343Z 30005KT 10SM SKC 22/M04 A3000 RMK SLP152 57014 974 HZ ISOL CI
MMTJ 162343Z 30005KT 10SM SKC 22/M04 A3000 RMK SLP152 57014 974 HZ ISOL CI
MMTJ 170052Z 28005KT 10SM FEW200 18/M02 A2999 RMK 8/009 HZY

Airport on the map: